sensor_id;sensor_type;location;lat;lon;timestamp;temperature;humidity
670;DHT22;317;48.758;9.302;2022-10-18T00:01:10;13.50;99.90
670;DHT22;317;48.758;9.302;2022-10-18T00:03:38;13.50;99.90
670;DHT22;317;48.758;9.302;2022-10-18T00:06:05;13.40;99.90
670;DHT22;317;48.758;9.302;2022-10-18T00:08:33;13.40;99.90
670;DHT22;317;48.758;9.302;2022-10-18T00:11:00;13.10;99.90
670;DHT22;317;48.758;9.302;2022-10-18T00:13:27;13.40;99.90
670;DHT22;317;48.758;9.302;2022-10-18T00:15:57;13.40;99.90
670;DHT22;317;48.758;9.302;2022-10-18T00:18:26;13.40;99.90
670;DHT22;317;48.758;9.302;2022-10-18T00:20:57;13.20;99.90
670;DHT22;317;48.758;9.302;2022-10-18T00:23:25;13.20;99.90
670;DHT22;317;48.758;9.302;2022-10-18T00:26:00;13.20;99.90
670;DHT22;317;48.758;9.302;2022-10-18T00:28:27;13.30;99.90
670;DHT22;317;48.758;9.302;2022-10-18T00:30:53;13.30;99.90
670;DHT22;317;48.758;9.302;2022-10-18T00:33:20;13.20;99.90
670;DHT22;317;48.758;9.302;2022-10-18T00:35:48;13.10;99.90
670;DHT22;317;48.758;9.302;2022-10-18T00:38:15;13.30;99.90
670;DHT22;317;48.758;9.302;2022-10-18T00:40:42;12.90;99.90
670;DHT22;317;48.758;9.302;2022-10-18T00:43:14;13.20;99.90
670;DHT22;317;48.758;9.302;2022-10-18T00:45:41;13.10;99.90
670;DHT22;317;48.758;9.302;2022-10-18T00:48:08;13.10;99.90
670;DHT22;317;48.758;9.302;2022-10-18T00:50:36;12.70;99.90
670;DHT22;317;48.758;9.302;2022-10-18T00:53:07;13.10;99.90
670;DHT22;317;48.758;9.302;2022-10-18T00:55:35;12.80;99.90
670;DHT22;317;48.758;9.302;2022-10-18T00:58:03;13.00;99.90
670;DHT22;317;48.758;9.302;2022-10-18T01:00:30;12.70;99.90
670;DHT22;317;48.758;9.302;2022-10-18T01:02:58;13.10;99.90
670;DHT22;317;48.758;9.302;2022-10-18T01:05:25;12.90;99.90
670;DHT22;317;48.758;9.302;2022-10-18T01:11:07;13.20;99.90
670;DHT22;317;48.758;9.302;2022-10-18T01:13:42;13.20;99.90
670;DHT22;317;48.758;9.302;2022-10-18T01:16:18;13.20;99.90
670;DHT22;317;48.758;9.302;2022-10-18T01:18:50;13.30;99.90
670;DHT22;317;48.758;9.302;2022-10-18T01:21:26;13.00;99.90
670;DHT22;317;48.758;9.302;2022-10-18T01:30:35;13.40;99.90
670;DHT22;317;48.758;9.302;2022-10-18T01:33:08;13.20;99.90
670;DHT22;317;48.758;9.302;2022-10-18T01:35:40;13.50;99.90
670;DHT22;317;48.758;9.302;2022-10-18T01:38:10;13.20;99.90
670;DHT22;317;48.758;9.302;2022-10-18T01:40:43;13.50;99.90
670;DHT22;317;48.758;9.302;2022-10-18T01:43:11;13.60;99.90
670;DHT22;317;48.758;9.302;2022-10-18T01:45:40;13.60;99.90
670;DHT22;317;48.758;9.302;2022-10-18T01:48:08;13.60;99.90
670;DHT22;317;48.758;9.302;2022-10-18T01:50:35;13.60;99.90
670;DHT22;317;48.758;9.302;2022-10-18T01:53:02;13.60;99.90
670;DHT22;317;48.758;9.302;2022-10-18T01:55:36;13.70;99.90
670;DHT22;317;48.758;9.302;2022-10-18T01:58:08;13.70;99.90
670;DHT22;317;48.758;9.302;2022-10-18T02:00:47;13.70;99.90
670;DHT22;317;48.758;9.302;2022-10-18T02:03:20;13.40;99.90
670;DHT22;317;48.758;9.302;2022-10-18T02:05:50;13.60;99.90
670;DHT22;317;48.758;9.302;2022-10-18T02:08:26;13.40;99.90
670;DHT22;317;48.758;9.302;2022-10-18T02:10:57;13.60;99.90
670;DHT22;317;48.758;9.302;2022-10-18T02:13:28;13.60;99.90
670;DHT22;317;48.758;9.302;2022-10-18T02:16:02;13.30;99.90
670;DHT22;317;48.758;9.302;2022-10-18T02:18:33;13.10;99.90
670;DHT22;317;48.758;9.302;2022-10-18T02:21:02;13.60;99.90
670;DHT22;317;48.758;9.302;2022-10-18T02:23:31;13.60;99.90
670;DHT22;317;48.758;9.302;2022-10-18T02:25:59;13.30;99.90
670;DHT22;317;48.758;9.302;2022-10-18T02:28:26;13.60;99.90
670;DHT22;317;48.758;9.302;2022-10-18T02:31:01;13.60;99.90
670;DHT22;317;48.758;9.302;2022-10-18T02:33:33;13.50;99.90
670;DHT22;317;48.758;9.302;2022-10-18T02:36:03;13.70;99.90
670;DHT22;317;48.758;9.302;2022-10-18T02:38:32;13.70;99.90
670;DHT22;317;48.758;9.302;2022-10-18T02:40:59;13.70;99.90
670;DHT22;317;48.758;9.302;2022-10-18T02:43:26;13.70;99.90
670;DHT22;317;48.758;9.302;2022-10-18T02:45:53;13.70;99.90
670;DHT22;317;48.758;9.302;2022-10-18T02:48:21;13.70;99.90
670;DHT22;317;48.758;9.302;2022-10-18T02:50:48;13.70;99.90
670;DHT22;317;48.758;9.302;2022-10-18T02:53:15;13.70;99.90
670;DHT22;317;48.758;9.302;2022-10-18T02:55:45;13.40;99.90
670;DHT22;317;48.758;9.302;2022-10-18T02:58:11;13.80;99.90
670;DHT22;317;48.758;9.302;2022-10-18T03:00:39;13.70;99.90
670;DHT22;317;48.758;9.302;2022-10-18T03:03:05;13.50;99.90
670;DHT22;317;48.758;9.302;2022-10-18T03:05:33;13.90;99.90
670;DHT22;317;48.758;9.302;2022-10-18T03:08:00;13.90;99.90
670;DHT22;317;48.758;9.302;2022-10-18T03:10:27;13.90;99.90
670;DHT22;317;48.758;9.302;2022-10-18T03:12:54;13.80;99.90
670;DHT22;317;48.758;9.302;2022-10-18T03:15:20;13.80;99.90
670;DHT22;317;48.758;9.302;2022-10-18T03:17:47;13.70;99.90
670;DHT22;317;48.758;9.302;2022-10-18T03:20:14;13.70;99.90
670;DHT22;317;48.758;9.302;2022-10-18T03:22:42;13.70;99.90
670;DHT22;317;48.758;9.302;2022-10-18T03:25:09;13.60;99.90
670;DHT22;317;48.758;9.302;2022-10-18T03:27:35;13.40;99.90
670;DHT22;317;48.758;9.302;2022-10-18T03:30:03;13.40;99.90
670;DHT22;317;48.758;9.302;2022-10-18T03:32:30;13.40;99.90
670;DHT22;317;48.758;9.302;2022-10-18T03:34:56;13.70;99.90
670;DHT22;317;48.758;9.302;2022-10-18T03:37:23;13.70;99.90
670;DHT22;317;48.758;9.302;2022-10-18T03:39:51;13.70;99.90
670;DHT22;317;48.758;9.302;2022-10-18T03:42:18;13.70;99.90
670;DHT22;317;48.758;9.302;2022-10-18T03:44:45;13.70;99.90
670;DHT22;317;48.758;9.302;2022-10-18T03:47:12;13.80;99.90
670;DHT22;317;48.758;9.302;2022-10-18T03:49:38;13.40;99.90
670;DHT22;317;48.758;9.302;2022-10-18T03:52:05;13.70;99.90
670;DHT22;317;48.758;9.302;2022-10-18T03:54:32;13.80;99.90
670;DHT22;317;48.758;9.302;2022-10-18T03:57:00;13.60;99.90
670;DHT22;317;48.758;9.302;2022-10-18T03:59:27;13.50;99.90
670;DHT22;317;48.758;9.302;2022-10-18T04:01:54;13.30;99.90
670;DHT22;317;48.758;9.302;2022-10-18T04:04:21;13.60;99.90
670;DHT22;317;48.758;9.302;2022-10-18T04:06:48;13.50;99.90
670;DHT22;317;48.758;9.302;2022-10-18T04:09:14;13.70;99.90
670;DHT22;317;48.758;9.302;2022-10-18T04:11:41;13.20;99.90
670;DHT22;317;48.758;9.302;2022-10-18T04:14:09;13.70;99.90
670;DHT22;317;48.758;9.302;2022-10-18T04:16:36;13.50;99.90
670;DHT22;317;48.758;9.302;2022-10-18T04:19:03;13.60;99.90
670;DHT22;317;48.758;9.302;2022-10-18T04:21:30;13.40;99.90
670;DHT22;317;48.758;9.302;2022-10-18T04:23:56;13.40;99.90
670;DHT22;317;48.758;9.302;2022-10-18T04:26:23;13.60;99.90
670;DHT22;317;48.758;9.302;2022-10-18T04:28:50;13.20;99.90
670;DHT22;317;48.758;9.302;2022-10-18T04:31:18;13.50;99.90
670;DHT22;317;48.758;9.302;2022-10-18T04:33:45;13.50;99.90
670;DHT22;317;48.758;9.302;2022-10-18T04:36:11;13.50;99.90
670;DHT22;317;48.758;9.302;2022-10-18T04:38:38;13.60;99.90
670;DHT22;317;48.758;9.302;2022-10-18T04:41:05;13.80;99.90
670;DHT22;317;48.758;9.302;2022-10-18T04:43:32;13.50;99.90
670;DHT22;317;48.758;9.302;2022-10-18T04:45:59;13.50;99.90
670;DHT22;317;48.758;9.302;2022-10-18T04:48:27;13.60;99.90
670;DHT22;317;48.758;9.302;2022-10-18T04:50:54;13.50;99.90
670;DHT22;317;48.758;9.302;2022-10-18T04:53:20;13.50;99.90
670;DHT22;317;48.758;9.302;2022-10-18T04:55:48;13.20;99.90
670;DHT22;317;48.758;9.302;2022-10-18T04:58:15;13.40;99.90
670;DHT22;317;48.758;9.302;2022-10-18T05:00:42;13.30;99.90
670;DHT22;317;48.758;9.302;2022-10-18T05:03:11;13.00;99.90
670;DHT22;317;48.758;9.302;2022-10-18T05:05:39;13.40;99.90
670;DHT22;317;48.758;9.302;2022-10-18T05:08:06;13.50;99.90
670;DHT22;317;48.758;9.302;2022-10-18T05:10:33;13.40;99.90
670;DHT22;317;48.758;9.302;2022-10-18T05:13:01;13.10;99.90
670;DHT22;317;48.758;9.302;2022-10-18T05:15:28;13.40;99.90
670;DHT22;317;48.758;9.302;2022-10-18T05:17:55;13.30;99.90
670;DHT22;317;48.758;9.302;2022-10-18T05:20:22;13.00;99.90
670;DHT22;317;48.758;9.302;2022-10-18T05:22:50;13.30;99.90
670;DHT22;317;48.758;9.302;2022-10-18T05:25:17;13.00;99.90
670;DHT22;317;48.758;9.302;2022-10-18T05:27:44;13.30;99.90
670;DHT22;317;48.758;9.302;2022-10-18T05:30:10;13.20;99.90
670;DHT22;317;48.758;9.302;2022-10-18T05:32:37;13.20;99.90
670;DHT22;317;48.758;9.302;2022-10-18T05:35:05;13.10;99.90
670;DHT22;317;48.758;9.302;2022-10-18T05:37:32;13.50;99.90
670;DHT22;317;48.758;9.302;2022-10-18T05:40:00;13.20;99.90
670;DHT22;317;48.758;9.302;2022-10-18T05:42:27;13.00;99.90
670;DHT22;317;48.758;9.302;2022-10-18T05:44:53;12.90;99.90
670;DHT22;317;48.758;9.302;2022-10-18T05:47:20;13.20;99.90
670;DHT22;317;48.758;9.302;2022-10-18T05:49:47;13.20;99.90
670;DHT22;317;48.758;9.302;2022-10-18T05:52:13;13.00;99.90
670;DHT22;317;48.758;9.302;2022-10-18T05:54:41;13.00;99.90
670;DHT22;317;48.758;9.302;2022-10-18T05:57:09;13.10;99.90
670;DHT22;317;48.758;9.302;2022-10-18T05:59:36;13.00;99.90
670;DHT22;317;48.758;9.302;2022-10-18T06:02:03;13.20;99.90
670;DHT22;317;48.758;9.302;2022-10-18T06:04:29;12.80;99.90
670;DHT22;317;48.758;9.302;2022-10-18T06:06:56;12.80;99.90
670;DHT22;317;48.758;9.302;2022-10-18T06:09:23;13.10;99.90
670;DHT22;317;48.758;9.302;2022-10-18T06:11:50;12.70;99.90
670;DHT22;317;48.758;9.302;2022-10-18T06:14:19;12.70;99.90
670;DHT22;317;48.758;9.302;2022-10-18T06:16:46;12.80;99.90
670;DHT22;317;48.758;9.302;2022-10-18T06:19:12;13.10;99.90
670;DHT22;317;48.758;9.302;2022-10-18T06:21:39;13.10;99.90
670;DHT22;317;48.758;9.302;2022-10-18T06:24:06;12.70;99.90
670;DHT22;317;48.758;9.302;2022-10-18T06:26:33;12.70;99.90
670;DHT22;317;48.758;9.302;2022-10-18T06:28:59;12.90;99.90
670;DHT22;317;48.758;9.302;2022-10-18T06:31:28;13.30;99.90
670;DHT22;317;48.758;9.302;2022-10-18T06:33:55;13.00;99.90
670;DHT22;317;48.758;9.302;2022-10-18T06:36:22;13.10;99.90
670;DHT22;317;48.758;9.302;2022-10-18T06:38:50;13.30;99.90
670;DHT22;317;48.758;9.302;2022-10-18T06:41:17;13.70;99.90
670;DHT22;317;48.758;9.302;2022-10-18T06:43:47;13.90;99.90
670;DHT22;317;48.758;9.302;2022-10-18T06:46:15;14.00;99.90
670;DHT22;317;48.758;9.302;2022-10-18T06:48:43;14.30;99.90
670;DHT22;317;48.758;9.302;2022-10-18T06:51:10;14.20;99.90
670;DHT22;317;48.758;9.302;2022-10-18T06:53:38;14.40;99.90
670;DHT22;317;48.758;9.302;2022-10-18T06:56:07;14.50;99.90
670;DHT22;317;48.758;9.302;2022-10-18T06:58:34;14.70;99.90
670;DHT22;317;48.758;9.302;2022-10-18T07:01:05;14.80;99.90
670;DHT22;317;48.758;9.302;2022-10-18T07:03:32;15.00;99.90
670;DHT22;317;48.758;9.302;2022-10-18T07:06:02;15.00;99.90
670;DHT22;317;48.758;9.302;2022-10-18T07:08:29;14.90;99.90
670;DHT22;317;48.758;9.302;2022-10-18T07:10:56;15.10;99.90
670;DHT22;317;48.758;9.302;2022-10-18T07:13:23;15.10;99.90
670;DHT22;317;48.758;9.302;2022-10-18T07:15:59;15.00;99.90
670;DHT22;317;48.758;9.302;2022-10-18T07:18:26;14.80;99.90
670;DHT22;317;48.758;9.302;2022-10-18T07:20:53;14.50;99.90
670;DHT22;317;48.758;9.302;2022-10-18T07:23:21;14.40;99.90
670;DHT22;317;48.758;9.302;2022-10-18T07:25:48;14.40;99.90
670;DHT22;317;48.758;9.302;2022-10-18T07:28:15;14.50;99.90
670;DHT22;317;48.758;9.302;2022-10-18T07:30:42;14.60;99.90
670;DHT22;317;48.758;9.302;2022-10-18T07:33:08;14.80;99.90
670;DHT22;317;48.758;9.302;2022-10-18T07:35:35;14.90;99.90
670;DHT22;317;48.758;9.302;2022-10-18T07:38:02;15.20;99.90
670;DHT22;317;48.758;9.302;2022-10-18T07:40:30;15.20;99.90
670;DHT22;317;48.758;9.302;2022-10-18T07:42:57;15.30;99.90
670;DHT22;317;48.758;9.302;2022-10-18T07:45:24;15.50;99.90
670;DHT22;317;48.758;9.302;2022-10-18T07:47:53;15.60;99.90
670;DHT22;317;48.758;9.302;2022-10-18T07:50:20;15.60;99.90
670;DHT22;317;48.758;9.302;2022-10-18T07:52:47;15.70;99.90
670;DHT22;317;48.758;9.302;2022-10-18T07:55:15;15.80;99.90
670;DHT22;317;48.758;9.302;2022-10-18T07:57:43;15.80;99.90
670;DHT22;317;48.758;9.302;2022-10-18T08:00:11;16.00;99.90
670;DHT22;317;48.758;9.302;2022-10-18T08:02:37;16.10;99.90
670;DHT22;317;48.758;9.302;2022-10-18T08:05:05;16.20;99.90
670;DHT22;317;48.758;9.302;2022-10-18T08:07:31;16.50;99.90
670;DHT22;317;48.758;9.302;2022-10-18T08:09:58;16.60;99.90
670;DHT22;317;48.758;9.302;2022-10-18T08:12:26;16.60;99.90
670;DHT22;317;48.758;9.302;2022-10-18T08:14:54;16.50;99.90
670;DHT22;317;48.758;9.302;2022-10-18T08:17:21;16.80;99.90
670;DHT22;317;48.758;9.302;2022-10-18T08:19:48;16.90;99.90
670;DHT22;317;48.758;9.302;2022-10-18T08:22:15;17.10;99.90
670;DHT22;317;48.758;9.302;2022-10-18T08:24:42;17.30;99.90
670;DHT22;317;48.758;9.302;2022-10-18T08:27:09;17.40;99.90
670;DHT22;317;48.758;9.302;2022-10-18T08:29:35;17.50;99.90
670;DHT22;317;48.758;9.302;2022-10-18T08:32:04;17.60;99.90
670;DHT22;317;48.758;9.302;2022-10-18T08:34:32;17.60;99.90
670;DHT22;317;48.758;9.302;2022-10-18T08:36:59;17.60;99.90
670;DHT22;317;48.758;9.302;2022-10-18T08:39:26;17.70;99.90
670;DHT22;317;48.758;9.302;2022-10-18T08:42:08;17.90;99.90
670;DHT22;317;48.758;9.302;2022-10-18T08:44:42;17.60;99.90
670;DHT22;317;48.758;9.302;2022-10-18T08:47:14;17.50;99.90
670;DHT22;317;48.758;9.302;2022-10-18T08:49:45;17.70;99.90
670;DHT22;317;48.758;9.302;2022-10-18T08:52:18;17.90;99.90
670;DHT22;317;48.758;9.302;2022-10-18T08:54:55;17.90;99.90
670;DHT22;317;48.758;9.302;2022-10-18T08:57:24;18.30;99.90
670;DHT22;317;48.758;9.302;2022-10-18T08:59:51;18.50;99.90
670;DHT22;317;48.758;9.302;2022-10-18T09:02:32;19.00;99.90
670;DHT22;317;48.758;9.302;2022-10-18T09:05:04;19.40;99.90
670;DHT22;317;48.758;9.302;2022-10-18T09:07:47;19.50;99.90
670;DHT22;317;48.758;9.302;2022-10-18T09:10:23;19.70;99.90
670;DHT22;317;48.758;9.302;2022-10-18T09:13:20;19.70;99.90
670;DHT22;317;48.758;9.302;2022-10-18T09:15:55;19.60;99.90
670;DHT22;317;48.758;9.302;2022-10-18T09:18:43;19.80;99.90
670;DHT22;317;48.758;9.302;2022-10-18T09:21:18;20.00;99.90
670;DHT22;317;48.758;9.302;2022-10-18T09:23:49;19.70;99.90
670;DHT22;317;48.758;9.302;2022-10-18T09:26:20;20.10;99.90
670;DHT22;317;48.758;9.302;2022-10-18T09:28:58;20.40;99.90
670;DHT22;317;48.758;9.302;2022-10-18T09:31:38;20.90;99.90
670;DHT22;317;48.758;9.302;2022-10-18T09:34:12;21.60;99.90
670;DHT22;317;48.758;9.302;2022-10-18T09:36:40;22.50;99.90
670;DHT22;317;48.758;9.302;2022-10-18T09:39:12;23.20;99.90
670;DHT22;317;48.758;9.302;2022-10-18T09:41:44;23.30;99.90
670;DHT22;317;48.758;9.302;2022-10-18T09:44:16;23.80;99.90
670;DHT22;317;48.758;9.302;2022-10-18T09:46:47;24.20;99.90
670;DHT22;317;48.758;9.302;2022-10-18T09:49:20;24.50;99.90
670;DHT22;317;48.758;9.302;2022-10-18T09:51:49;24.90;99.90
670;DHT22;317;48.758;9.302;2022-10-18T09:54:20;24.60;99.90
670;DHT22;317;48.758;9.302;2022-10-18T09:56:51;24.50;99.90
670;DHT22;317;48.758;9.302;2022-10-18T09:59:29;24.90;99.90
670;DHT22;317;48.758;9.302;2022-10-18T10:01:57;24.90;99.90
670;DHT22;317;48.758;9.302;2022-10-18T10:04:25;24.60;99.90
670;DHT22;317;48.758;9.302;2022-10-18T10:06:53;25.20;99.90
670;DHT22;317;48.758;9.302;2022-10-18T10:09:25;24.90;99.90
670;DHT22;317;48.758;9.302;2022-10-18T10:11:54;25.60;99.90
670;DHT22;317;48.758;9.302;2022-10-18T10:14:22;25.80;99.90
670;DHT22;317;48.758;9.302;2022-10-18T10:16:52;26.00;99.90
670;DHT22;317;48.758;9.302;2022-10-18T10:19:25;25.70;99.90
670;DHT22;317;48.758;9.302;2022-10-18T10:21:57;26.00;99.90
670;DHT22;317;48.758;9.302;2022-10-18T10:24:33;25.90;99.40
670;DHT22;317;48.758;9.302;2022-10-18T10:27:04;25.50;99.90
670;DHT22;317;48.758;9.302;2022-10-18T10:29:49;25.30;99.90
670;DHT22;317;48.758;9.302;2022-10-18T10:32:19;25.50;99.90
670;DHT22;317;48.758;9.302;2022-10-18T10:34:48;25.40;99.90
670;DHT22;317;48.758;9.302;2022-10-18T10:37:28;25.80;99.90
670;DHT22;317;48.758;9.302;2022-10-18T10:40:17;27.40;95.10
670;DHT22;317;48.758;9.302;2022-10-18T10:42:54;28.10;90.20
670;DHT22;317;48.758;9.302;2022-10-18T10:45:24;28.90;81.90
670;DHT22;317;48.758;9.302;2022-10-18T10:47:53;28.60;80.90
670;DHT22;317;48.758;9.302;2022-10-18T10:50:26;28.30;82.60
670;DHT22;317;48.758;9.302;2022-10-18T10:52:54;29.20;76.40
670;DHT22;317;48.758;9.302;2022-10-18T10:55:23;29.90;71.60
670;DHT22;317;48.758;9.302;2022-10-18T10:57:53;30.20;71.20
670;DHT22;317;48.758;9.302;2022-10-18T11:00:42;30.80;67.60
670;DHT22;317;48.758;9.302;2022-10-18T11:03:12;30.70;69.90
670;DHT22;317;48.758;9.302;2022-10-18T11:05:46;32.20;66.60
670;DHT22;317;48.758;9.302;2022-10-18T11:08:15;32.00;64.00
670;DHT22;317;48.758;9.302;2022-10-18T11:10:55;31.40;64.10
670;DHT22;317;48.758;9.302;2022-10-18T11:13:33;30.30;65.50
670;DHT22;317;48.758;9.302;2022-10-18T11:16:11;29.40;70.70
670;DHT22;317;48.758;9.302;2022-10-18T11:18:45;28.30;74.70
670;DHT22;317;48.758;9.302;2022-10-18T11:21:19;27.70;78.50
670;DHT22;317;48.758;9.302;2022-10-18T11:23:48;27.40;82.90
670;DHT22;317;48.758;9.302;2022-10-18T11:26:36;27.10;86.50
670;DHT22;317;48.758;9.302;2022-10-18T11:29:32;26.50;90.30
670;DHT22;317;48.758;9.302;2022-10-18T11:32:07;26.70;90.40
670;DHT22;317;48.758;9.302;2022-10-18T11:34:55;26.80;90.50
670;DHT22;317;48.758;9.302;2022-10-18T11:37:41;26.80;91.20
670;DHT22;317;48.758;9.302;2022-10-18T11:43:14;28.10;83.70
670;DHT22;317;48.758;9.302;2022-10-18T11:45:50;27.80;85.30
670;DHT22;317;48.758;9.302;2022-10-18T11:48:35;27.30;87.60
670;DHT22;317;48.758;9.302;2022-10-18T11:51:11;26.50;93.20
670;DHT22;317;48.758;9.302;2022-10-18T11:53:45;26.30;93.20
670;DHT22;317;48.758;9.302;2022-10-18T11:56:20;26.70;91.60
670;DHT22;317;48.758;9.302;2022-10-18T11:59:01;26.60;91.10
670;DHT22;317;48.758;9.302;2022-10-18T12:01:37;26.10;91.20
670;DHT22;317;48.758;9.302;2022-10-18T12:04:09;25.60;94.80
670;DHT22;317;48.758;9.302;2022-10-18T12:06:39;25.20;96.50
670;DHT22;317;48.758;9.302;2022-10-18T12:09:13;25.00;99.90
670;DHT22;317;48.758;9.302;2022-10-18T12:11:48;24.70;99.90
670;DHT22;317;48.758;9.302;2022-10-18T12:14:22;25.30;97.30
670;DHT22;317;48.758;9.302;2022-10-18T12:16:50;25.10;98.50
670;DHT22;317;48.758;9.302;2022-10-18T12:19:19;25.20;99.90
670;DHT22;317;48.758;9.302;2022-10-18T12:21:48;26.50;94.50
670;DHT22;317;48.758;9.302;2022-10-18T12:24:21;27.90;88.90
670;DHT22;317;48.758;9.302;2022-10-18T12:26:56;29.20;82.20
670;DHT22;317;48.758;9.302;2022-10-18T12:29:28;28.90;78.80
670;DHT22;317;48.758;9.302;2022-10-18T12:31:59;28.00;87.70
670;DHT22;317;48.758;9.302;2022-10-18T12:34:32;28.30;85.60
670;DHT22;317;48.758;9.302;2022-10-18T12:37:15;28.40;86.10
670;DHT22;317;48.758;9.302;2022-10-18T12:39:51;28.00;86.60
670;DHT22;317;48.758;9.302;2022-10-18T12:42:20;27.70;89.60
670;DHT22;317;48.758;9.302;2022-10-18T12:44:49;29.10;82.90
670;DHT22;317;48.758;9.302;2022-10-18T12:47:26;30.20;78.20
670;DHT22;317;48.758;9.302;2022-10-18T12:50:02;30.30;74.70
670;DHT22;317;48.758;9.302;2022-10-18T12:52:31;30.10;74.00
670;DHT22;317;48.758;9.302;2022-10-18T12:55:30;30.20;75.00
670;DHT22;317;48.758;9.302;2022-10-18T12:58:05;29.50;74.80
670;DHT22;317;48.758;9.302;2022-10-18T13:00:54;29.20;78.30
670;DHT22;317;48.758;9.302;2022-10-18T13:06:22;28.00;81.80
670;DHT22;317;48.758;9.302;2022-10-18T13:09:17;26.70;90.80
670;DHT22;317;48.758;9.302;2022-10-18T13:11:45;27.60;88.00
670;DHT22;317;48.758;9.302;2022-10-18T13:14:54;28.20;83.60
670;DHT22;317;48.758;9.302;2022-10-18T13:17:30;27.80;85.60
670;DHT22;317;48.758;9.302;2022-10-18T13:20:10;28.20;88.50
670;DHT22;317;48.758;9.302;2022-10-18T13:22:58;29.50;81.70
670;DHT22;317;48.758;9.302;2022-10-18T13:25:34;29.40;77.70
670;DHT22;317;48.758;9.302;2022-10-18T13:28:25;28.70;84.20
670;DHT22;317;48.758;9.302;2022-10-18T13:30:56;28.50;83.40
670;DHT22;317;48.758;9.302;2022-10-18T13:33:33;27.80;88.30
670;DHT22;317;48.758;9.302;2022-10-18T13:36:02;27.10;91.00
670;DHT22;317;48.758;9.302;2022-10-18T13:44:41;27.10;92.30
670;DHT22;317;48.758;9.302;2022-10-18T13:47:11;26.20;95.10
670;DHT22;317;48.758;9.302;2022-10-18T13:49:52;25.40;97.50
670;DHT22;317;48.758;9.302;2022-10-18T13:52:27;24.60;99.90
670;DHT22;317;48.758;9.302;2022-10-18T13:55:13;24.30;99.90
670;DHT22;317;48.758;9.302;2022-10-18T13:57:48;23.60;99.90
670;DHT22;317;48.758;9.302;2022-10-18T14:00:39;23.40;99.90
670;DHT22;317;48.758;9.302;2022-10-18T14:03:42;23.10;99.90
670;DHT22;317;48.758;9.302;2022-10-18T14:06:17;22.90;99.90
670;DHT22;317;48.758;9.302;2022-10-18T14:08:52;22.70;99.90
670;DHT22;317;48.758;9.302;2022-10-18T14:11:26;22.70;99.90
670;DHT22;317;48.758;9.302;2022-10-18T14:14:00;23.50;99.90
670;DHT22;317;48.758;9.302;2022-10-18T14:16:36;25.00;99.90
670;DHT22;317;48.758;9.302;2022-10-18T14:19:13;25.10;99.90
670;DHT22;317;48.758;9.302;2022-10-18T14:21:49;24.40;99.90
670;DHT22;317;48.758;9.302;2022-10-18T14:24:21;23.90;99.90
670;DHT22;317;48.758;9.302;2022-10-18T14:27:10;23.20;99.90
670;DHT22;317;48.758;9.302;2022-10-18T14:29:39;23.00;99.90
670;DHT22;317;48.758;9.302;2022-10-18T14:32:09;22.70;99.90
670;DHT22;317;48.758;9.302;2022-10-18T14:34:45;22.70;99.90
670;DHT22;317;48.758;9.302;2022-10-18T14:37:20;22.70;99.90
670;DHT22;317;48.758;9.302;2022-10-18T14:39:49;22.60;99.90
670;DHT22;317;48.758;9.302;2022-10-18T14:42:19;22.50;99.90
670;DHT22;317;48.758;9.302;2022-10-18T14:44:50;22.40;99.90
670;DHT22;317;48.758;9.302;2022-10-18T14:47:22;22.30;99.90
670;DHT22;317;48.758;9.302;2022-10-18T14:49:50;22.00;99.90
670;DHT22;317;48.758;9.302;2022-10-18T14:52:24;21.80;99.90
670;DHT22;317;48.758;9.302;2022-10-18T14:54:53;21.70;99.90
670;DHT22;317;48.758;9.302;2022-10-18T14:57:24;21.50;99.90
670;DHT22;317;48.758;9.302;2022-10-18T14:59:54;21.50;99.90
670;DHT22;317;48.758;9.302;2022-10-18T15:02:25;21.30;99.90
670;DHT22;317;48.758;9.302;2022-10-18T15:04:57;21.30;99.90
670;DHT22;317;48.758;9.302;2022-10-18T15:07:27;21.20;99.90
670;DHT22;317;48.758;9.302;2022-10-18T15:09:56;21.20;99.90
670;DHT22;317;48.758;9.302;2022-10-18T15:12:26;21.20;99.90
670;DHT22;317;48.758;9.302;2022-10-18T15:14:54;21.30;99.90
670;DHT22;317;48.758;9.302;2022-10-18T15:17:28;21.60;99.90
670;DHT22;317;48.758;9.302;2022-10-18T15:19:58;22.10;99.90
670;DHT22;317;48.758;9.302;2022-10-18T15:22:31;22.20;99.90
670;DHT22;317;48.758;9.302;2022-10-18T15:25:23;22.60;99.90
670;DHT22;317;48.758;9.302;2022-10-18T15:27:52;22.60;99.90
670;DHT22;317;48.758;9.302;2022-10-18T15:30:25;22.70;99.90
670;DHT22;317;48.758;9.302;2022-10-18T15:32:56;22.70;99.90
670;DHT22;317;48.758;9.302;2022-10-18T15:35:27;22.60;99.90
670;DHT22;317;48.758;9.302;2022-10-18T15:37:56;22.20;99.90
670;DHT22;317;48.758;9.302;2022-10-18T15:40:36;21.90;99.90
670;DHT22;317;48.758;9.302;2022-10-18T15:45:51;21.20;99.90
670;DHT22;317;48.758;9.302;2022-10-18T15:48:24;20.90;99.90
670;DHT22;317;48.758;9.302;2022-10-18T15:50:54;20.90;99.90
670;DHT22;317;48.758;9.302;2022-10-18T15:53:40;21.10;99.90
670;DHT22;317;48.758;9.302;2022-10-18T15:56:25;20.90;99.90
670;DHT22;317;48.758;9.302;2022-10-18T15:58:53;20.80;99.90
670;DHT22;317;48.758;9.302;2022-10-18T16:01:30;20.60;99.90
670;DHT22;317;48.758;9.302;2022-10-18T16:04:00;20.50;99.90
670;DHT22;317;48.758;9.302;2022-10-18T16:06:30;20.40;99.90
670;DHT22;317;48.758;9.302;2022-10-18T16:08:59;20.30;99.90
670;DHT22;317;48.758;9.302;2022-10-18T16:11:27;20.20;99.90
670;DHT22;317;48.758;9.302;2022-10-18T16:13:54;20.10;99.90
670;DHT22;317;48.758;9.302;2022-10-18T16:16:23;20.00;99.90
670;DHT22;317;48.758;9.302;2022-10-18T16:18:53;20.00;99.90
670;DHT22;317;48.758;9.302;2022-10-18T16:21:23;19.80;99.90
670;DHT22;317;48.758;9.302;2022-10-18T16:23:53;19.80;99.90
670;DHT22;317;48.758;9.302;2022-10-18T16:26:21;19.70;99.90
670;DHT22;317;48.758;9.302;2022-10-18T16:28:49;19.60;99.90
670;DHT22;317;48.758;9.302;2022-10-18T16:31:18;19.60;99.90
670;DHT22;317;48.758;9.302;2022-10-18T16:33:46;19.50;99.90
670;DHT22;317;48.758;9.302;2022-10-18T16:36:14;19.50;99.90
670;DHT22;317;48.758;9.302;2022-10-18T16:38:44;19.40;99.90
670;DHT22;317;48.758;9.302;2022-10-18T16:41:11;19.40;99.90
670;DHT22;317;48.758;9.302;2022-10-18T16:43:41;19.30;99.90
670;DHT22;317;48.758;9.302;2022-10-18T16:46:13;19.20;99.90
670;DHT22;317;48.758;9.302;2022-10-18T16:48:40;19.20;99.90
670;DHT22;317;48.758;9.302;2022-10-18T16:51:08;19.10;99.90
670;DHT22;317;48.758;9.302;2022-10-18T16:53:35;19.00;99.90
670;DHT22;317;48.758;9.302;2022-10-18T16:56:09;19.00;99.90
670;DHT22;317;48.758;9.302;2022-10-18T16:58:38;19.00;99.90
670;DHT22;317;48.758;9.302;2022-10-18T17:01:05;19.00;99.90
670;DHT22;317;48.758;9.302;2022-10-18T17:03:33;19.00;99.90
670;DHT22;317;48.758;9.302;2022-10-18T17:06:00;18.90;99.90
670;DHT22;317;48.758;9.302;2022-10-18T17:08:27;18.90;99.90
670;DHT22;317;48.758;9.302;2022-10-18T17:10:57;18.80;99.90
670;DHT22;317;48.758;9.302;2022-10-18T17:13:27;18.80;99.90
670;DHT22;317;48.758;9.302;2022-10-18T17:15:54;18.80;99.90
670;DHT22;317;48.758;9.302;2022-10-18T17:18:23;18.70;99.90
670;DHT22;317;48.758;9.302;2022-10-18T17:20:52;18.70;99.90
670;DHT22;317;48.758;9.302;2022-10-18T17:23:19;18.60;99.90